N4877P KRNH-KFAR
Flight info
| Callsign | N4877P |
|---|---|
| Flight time | 0h 57m |
| Altitude | 26000 |
| Route | IJKOM |
| Aircraft | B350/L-SBGRW/S |
Departure
| Time | 2026-05-07 00:50 |
|---|---|
| Airport | New Richmond Regional Airport (KRNH) |
Arrival
| Time | 2026-05-07 01:47 |
|---|---|
| Airport | Hector International Airport (KFAR) |
| Time | Latitude | Longitude | Altitude | Speed | Heading |
|---|---|---|---|---|---|
| 2026-05-07 00:39 | 45.14318 | -92.53398 | 991 ft | 0 kts | 239° |
| 2026-05-07 00:48 | 45.14316 | -92.53419 | 991 ft | 5 kts | 289° |
| 2026-05-07 00:48 | 45.14351 | -92.53410 | 991 ft | 0 kts | 27° |
| 2026-05-07 00:49 | 45.14372 | -92.53392 | 992 ft | 12 kts | 40° |
| 2026-05-07 00:49 | 45.14418 | -92.53368 | 993 ft | 15 kts | 330° |
| 2026-05-07 00:49 | 45.14591 | -92.53554 | 992 ft | 59 kts | 323° |
| 2026-05-07 00:50 | 45.15114 | -92.54106 | 1047 ft | 123 kts | 320° |
| 2026-05-07 00:50 | 45.15768 | -92.54788 | 1796 ft | 115 kts | 321° |
| 2026-05-07 00:50 | 45.16409 | -92.55462 | 2557 ft | 118 kts | 317° |
| 2026-05-07 00:50 | 45.16998 | -92.56168 | 3347 ft | 115 kts | 317° |
| 2026-05-07 00:51 | 45.17372 | -92.56639 | 3906 ft | 109 kts | 315° |
| 2026-05-07 00:51 | 45.18088 | -92.57648 | 4692 ft | 123 kts | 307° |
| 2026-05-07 00:51 | 45.18658 | -92.58664 | 5103 ft | 146 kts | 306° |
| 2026-05-07 00:51 | 45.19302 | -92.59856 | 5610 ft | 161 kts | 305° |
| 2026-05-07 00:52 | 45.19746 | -92.60701 | 6018 ft | 165 kts | 305° |
| 2026-05-07 00:52 | 45.20639 | -92.62447 | 6939 ft | 166 kts | 304° |
| 2026-05-07 00:52 | 45.21280 | -92.63744 | 7625 ft | 165 kts | 303° |
| 2026-05-07 00:52 | 45.21921 | -92.65073 | 8308 ft | 165 kts | 303° |
| 2026-05-07 00:53 | 45.22545 | -92.66404 | 8962 ft | 168 kts | 302° |
| 2026-05-07 00:53 | 45.23167 | -92.67774 | 9722 ft | 169 kts | 301° |
| 2026-05-07 00:53 | 45.23768 | -92.69144 | 10478 ft | 164 kts | 301° |
| 2026-05-07 00:53 | 45.24356 | -92.70521 | 11179 ft | 166 kts | 301° |
| 2026-05-07 00:54 | 45.24738 | -92.71442 | 11665 ft | 166 kts | 300° |
| 2026-05-07 00:54 | 45.25496 | -92.73322 | 12670 ft | 166 kts | 300° |
| 2026-05-07 00:54 | 45.26028 | -92.74700 | 13431 ft | 165 kts | 299° |
| 2026-05-07 00:54 | 45.26377 | -92.75627 | 13946 ft | 164 kts | 298° |
| 2026-05-07 00:55 | 45.27064 | -92.77516 | 14951 ft | 164 kts | 298° |
| 2026-05-07 00:55 | 45.27558 | -92.78932 | 15735 ft | 163 kts | 297° |
| 2026-05-07 00:55 | 45.28075 | -92.80321 | 16495 ft | 162 kts | 309° |
| 2026-05-07 00:55 | 45.28988 | -92.81240 | 17204 ft | 163 kts | 321° |
| 2026-05-07 00:56 | 45.29805 | -92.82282 | 17900 ft | 160 kts | 311° |
| 2026-05-07 00:56 | 45.30503 | -92.83460 | 18561 ft | 160 kts | 307° |
| 2026-05-07 00:56 | 45.31153 | -92.84709 | 19202 ft | 160 kts | 305° |
| 2026-05-07 00:56 | 45.31786 | -92.85996 | 19843 ft | 160 kts | 304° |
| 2026-05-07 00:57 | 45.32399 | -92.87278 | 20461 ft | 160 kts | 303° |
| 2026-05-07 00:57 | 45.33014 | -92.88577 | 21053 ft | 160 kts | 303° |
| 2026-05-07 00:57 | 45.33628 | -92.89880 | 21627 ft | 160 kts | 303° |
| 2026-05-07 00:57 | 45.34236 | -92.91173 | 22172 ft | 161 kts | 303° |
| 2026-05-07 00:58 | 45.34843 | -92.92467 | 22715 ft | 160 kts | 303° |
| 2026-05-07 00:58 | 45.35454 | -92.93771 | 23243 ft | 161 kts | 303° |
| 2026-05-07 00:58 | 45.36066 | -92.95074 | 23754 ft | 161 kts | 303° |
| 2026-05-07 00:58 | 45.36675 | -92.96374 | 24248 ft | 161 kts | 303° |
| 2026-05-07 00:59 | 45.37892 | -92.98975 | 25164 ft | 163 kts | 302° |
| 2026-05-07 00:59 | 45.38508 | -93.00293 | 25654 ft | 164 kts | 302° |
| 2026-05-07 00:59 | 45.39137 | -93.01639 | 25982 ft | 174 kts | 302° |
| 2026-05-07 01:00 | 45.39832 | -93.03127 | 26027 ft | 197 kts | 302° |
| 2026-05-07 01:00 | 45.40317 | -93.04163 | 26036 ft | 211 kts | 302° |
| 2026-05-07 01:00 | 45.41405 | -93.06492 | 26030 ft | 232 kts | 303° |
| 2026-05-07 01:00 | 45.41978 | -93.07719 | 26029 ft | 241 kts | 302° |
| 2026-05-07 01:01 | 45.43176 | -93.10288 | 26026 ft | 256 kts | 302° |
| 2026-05-07 01:01 | 45.44123 | -93.12323 | 26023 ft | 265 kts | 303° |
| 2026-05-07 01:01 | 45.44795 | -93.13764 | 26023 ft | 271 kts | 303° |
| 2026-05-07 01:01 | 45.46138 | -93.16650 | 26017 ft | 276 kts | 303° |
| 2026-05-07 01:02 | 45.47169 | -93.18869 | 26015 ft | 277 kts | 303° |
| 2026-05-07 01:02 | 45.48174 | -93.21030 | 26008 ft | 277 kts | 303° |
| 2026-05-07 01:02 | 45.49215 | -93.23273 | 26013 ft | 276 kts | 303° |
| 2026-05-07 01:02 | 45.50212 | -93.25424 | 26014 ft | 275 kts | 303° |
| 2026-05-07 01:03 | 45.51252 | -93.27668 | 26013 ft | 275 kts | 303° |
| 2026-05-07 01:03 | 45.52256 | -93.29839 | 26010 ft | 275 kts | 303° |
| 2026-05-07 01:03 | 45.53272 | -93.32033 | 26010 ft | 274 kts | 303° |
| 2026-05-07 01:03 | 45.54287 | -93.34231 | 26014 ft | 274 kts | 303° |
| 2026-05-07 01:04 | 45.55301 | -93.36425 | 26016 ft | 273 kts | 302° |
| 2026-05-07 01:04 | 45.56304 | -93.38598 | 26015 ft | 273 kts | 303° |
| 2026-05-07 01:04 | 45.57251 | -93.40651 | 26015 ft | 273 kts | 303° |
| 2026-05-07 01:04 | 45.58235 | -93.42786 | 26012 ft | 273 kts | 303° |
| 2026-05-07 01:05 | 45.59211 | -93.44905 | 26014 ft | 273 kts | 303° |
| 2026-05-07 01:05 | 45.60141 | -93.46928 | 26012 ft | 273 kts | 303° |
| 2026-05-07 01:05 | 45.61092 | -93.48996 | 26014 ft | 273 kts | 303° |
| 2026-05-07 01:05 | 45.62049 | -93.51079 | 26012 ft | 273 kts | 303° |
| 2026-05-07 01:06 | 45.63049 | -93.53256 | 26012 ft | 273 kts | 302° |
| 2026-05-07 01:06 | 45.64053 | -93.55445 | 26010 ft | 273 kts | 302° |
| 2026-05-07 01:06 | 45.65056 | -93.57632 | 26013 ft | 272 kts | 303° |
| 2026-05-07 01:06 | 45.66061 | -93.59826 | 26010 ft | 273 kts | 303° |
| 2026-05-07 01:07 | 45.67083 | -93.62058 | 26007 ft | 273 kts | 303° |
| 2026-05-07 01:07 | 45.68077 | -93.64231 | 26006 ft | 273 kts | 303° |
| 2026-05-07 01:07 | 45.69063 | -93.66389 | 26011 ft | 273 kts | 302° |
| 2026-05-07 01:07 | 45.70020 | -93.68485 | 26010 ft | 273 kts | 302° |
| 2026-05-07 01:08 | 45.71008 | -93.70651 | 26009 ft | 273 kts | 302° |
| 2026-05-07 01:08 | 45.72011 | -93.72849 | 26010 ft | 274 kts | 302° |
| 2026-05-07 01:08 | 45.72987 | -93.74992 | 26006 ft | 274 kts | 302° |
| 2026-05-07 01:08 | 45.73931 | -93.77065 | 26007 ft | 274 kts | 302° |
| 2026-05-07 01:09 | 45.74865 | -93.79118 | 26003 ft | 274 kts | 302° |
| 2026-05-07 01:09 | 45.75818 | -93.81214 | 26002 ft | 274 kts | 302° |
| 2026-05-07 01:09 | 45.76762 | -93.83292 | 25997 ft | 275 kts | 302° |
| 2026-05-07 01:09 | 45.77706 | -93.85372 | 26001 ft | 275 kts | 302° |
| 2026-05-07 01:10 | 45.78645 | -93.87443 | 26002 ft | 275 kts | 302° |
| 2026-05-07 01:10 | 45.79603 | -93.89556 | 26002 ft | 275 kts | 302° |
| 2026-05-07 01:10 | 45.80568 | -93.91686 | 26004 ft | 275 kts | 302° |
| 2026-05-07 01:10 | 45.81527 | -93.93804 | 25998 ft | 276 kts | 302° |
| 2026-05-07 01:11 | 45.82486 | -93.95926 | 25996 ft | 276 kts | 302° |
| 2026-05-07 01:11 | 45.83448 | -93.98055 | 25998 ft | 276 kts | 302° |
| 2026-05-07 01:11 | 45.84405 | -94.00173 | 26001 ft | 276 kts | 302° |
| 2026-05-07 01:11 | 45.85331 | -94.02227 | 26000 ft | 277 kts | 302° |
| 2026-05-07 01:12 | 45.86288 | -94.04348 | 26000 ft | 277 kts | 302° |
| 2026-05-07 01:12 | 45.87241 | -94.06464 | 25999 ft | 277 kts | 302° |
| 2026-05-07 01:12 | 45.88192 | -94.08575 | 26000 ft | 277 kts | 302° |
| 2026-05-07 01:12 | 45.88826 | -94.09985 | 26001 ft | 277 kts | 302° |
| 2026-05-07 01:13 | 45.90089 | -94.12794 | 26002 ft | 277 kts | 302° |
| 2026-05-07 01:13 | 45.91040 | -94.14912 | 26003 ft | 277 kts | 302° |
| 2026-05-07 01:13 | 45.91690 | -94.16360 | 26006 ft | 277 kts | 302° |
| 2026-05-07 01:13 | 45.92977 | -94.19228 | 26011 ft | 277 kts | 302° |
| 2026-05-07 01:14 | 45.93946 | -94.21391 | 26013 ft | 277 kts | 302° |
| 2026-05-07 01:14 | 45.94917 | -94.23557 | 26009 ft | 277 kts | 302° |
| 2026-05-07 01:14 | 45.95895 | -94.25745 | 26008 ft | 278 kts | 302° |
| 2026-05-07 01:14 | 45.96845 | -94.27867 | 26010 ft | 277 kts | 302° |
| 2026-05-07 01:15 | 45.97789 | -94.29981 | 26010 ft | 278 kts | 302° |
| 2026-05-07 01:15 | 45.98719 | -94.32064 | 26009 ft | 278 kts | 302° |
| 2026-05-07 01:15 | 45.99646 | -94.34143 | 26009 ft | 278 kts | 302° |
| 2026-05-07 01:15 | 46.00594 | -94.36268 | 26008 ft | 278 kts | 302° |
| 2026-05-07 01:16 | 46.01554 | -94.38422 | 26006 ft | 278 kts | 302° |
| 2026-05-07 01:16 | 46.02516 | -94.40585 | 26005 ft | 278 kts | 302° |
| 2026-05-07 01:16 | 46.03474 | -94.42738 | 26003 ft | 278 kts | 302° |
| 2026-05-07 01:16 | 46.04436 | -94.44903 | 26004 ft | 278 kts | 302° |
| 2026-05-07 01:17 | 46.05381 | -94.47031 | 26004 ft | 277 kts | 302° |
| 2026-05-07 01:17 | 46.06340 | -94.49194 | 26001 ft | 278 kts | 302° |
| 2026-05-07 01:17 | 46.07323 | -94.51410 | 25998 ft | 278 kts | 302° |
| 2026-05-07 01:17 | 46.08265 | -94.53535 | 25995 ft | 278 kts | 302° |
| 2026-05-07 01:18 | 46.09201 | -94.55649 | 25993 ft | 278 kts | 302° |
| 2026-05-07 01:18 | 46.10159 | -94.57816 | 25989 ft | 278 kts | 302° |
| 2026-05-07 01:18 | 46.11144 | -94.60044 | 25990 ft | 278 kts | 302° |
| 2026-05-07 01:18 | 46.12135 | -94.62289 | 25982 ft | 278 kts | 302° |
| 2026-05-07 01:19 | 46.13102 | -94.64480 | 25981 ft | 279 kts | 302° |
| 2026-05-07 01:19 | 46.14107 | -94.66761 | 25983 ft | 279 kts | 302° |
| 2026-05-07 01:19 | 46.15135 | -94.69093 | 25983 ft | 279 kts | 302° |
| 2026-05-07 01:19 | 46.16132 | -94.71356 | 25983 ft | 279 kts | 302° |
| 2026-05-07 01:20 | 46.17162 | -94.73697 | 25981 ft | 280 kts | 302° |
| 2026-05-07 01:20 | 46.18182 | -94.76016 | 25984 ft | 280 kts | 302° |
| 2026-05-07 01:20 | 46.19187 | -94.78307 | 25984 ft | 280 kts | 302° |
| 2026-05-07 01:20 | 46.20186 | -94.80582 | 25985 ft | 280 kts | 302° |
| 2026-05-07 01:21 | 46.21174 | -94.82836 | 25986 ft | 280 kts | 302° |
| 2026-05-07 01:21 | 46.22168 | -94.85104 | 25982 ft | 280 kts | 302° |
| 2026-05-07 01:21 | 46.23167 | -94.87387 | 25985 ft | 280 kts | 302° |
| 2026-05-07 01:21 | 46.24172 | -94.89685 | 25990 ft | 280 kts | 302° |
| 2026-05-07 01:22 | 46.25134 | -94.91885 | 25988 ft | 280 kts | 302° |
| 2026-05-07 01:22 | 46.26117 | -94.94137 | 25765 ft | 288 kts | 302° |
| 2026-05-07 01:22 | 46.27153 | -94.96511 | 25404 ft | 294 kts | 302° |
| 2026-05-07 01:22 | 46.28184 | -94.98875 | 25038 ft | 295 kts | 302° |
| 2026-05-07 01:23 | 46.29250 | -95.01320 | 24654 ft | 294 kts | 302° |
| 2026-05-07 01:23 | 46.30296 | -95.03723 | 24264 ft | 290 kts | 302° |
| 2026-05-07 01:23 | 46.31316 | -95.06069 | 23871 ft | 286 kts | 302° |
| 2026-05-07 01:23 | 46.32319 | -95.08378 | 23468 ft | 282 kts | 302° |
| 2026-05-07 01:24 | 46.33330 | -95.10707 | 23070 ft | 278 kts | 302° |
| 2026-05-07 01:24 | 46.34318 | -95.12983 | 22669 ft | 271 kts | 302° |
| 2026-05-07 01:24 | 46.35292 | -95.15230 | 22256 ft | 263 kts | 302° |
| 2026-05-07 01:24 | 46.36224 | -95.17382 | 21851 ft | 257 kts | 302° |
| 2026-05-07 01:25 | 46.37156 | -95.19536 | 21439 ft | 251 kts | 302° |
| 2026-05-07 01:25 | 46.38053 | -95.21610 | 21039 ft | 246 kts | 302° |
| 2026-05-07 01:25 | 46.38949 | -95.23685 | 20632 ft | 241 kts | 302° |
| 2026-05-07 01:25 | 46.39810 | -95.25678 | 20236 ft | 237 kts | 302° |
| 2026-05-07 01:26 | 46.40659 | -95.27645 | 19841 ft | 233 kts | 302° |
| 2026-05-07 01:26 | 46.41497 | -95.29591 | 19445 ft | 229 kts | 302° |
| 2026-05-07 01:26 | 46.42052 | -95.30878 | 19177 ft | 227 kts | 302° |
| 2026-05-07 01:26 | 46.43157 | -95.33445 | 18647 ft | 223 kts | 302° |
| 2026-05-07 01:27 | 46.43967 | -95.35326 | 18255 ft | 220 kts | 302° |
| 2026-05-07 01:27 | 46.44758 | -95.37167 | 17876 ft | 218 kts | 302° |
| 2026-05-07 01:27 | 46.45557 | -95.39027 | 17489 ft | 215 kts | 302° |
| 2026-05-07 01:27 | 46.46338 | -95.40845 | 17102 ft | 214 kts | 302° |
| 2026-05-07 01:28 | 46.47113 | -95.42652 | 16714 ft | 212 kts | 302° |
| 2026-05-07 01:28 | 46.47871 | -95.44420 | 16335 ft | 210 kts | 302° |
| 2026-05-07 01:28 | 46.48644 | -95.46223 | 15940 ft | 208 kts | 302° |
| 2026-05-07 01:28 | 46.49166 | -95.48136 | 15543 ft | 209 kts | 277° |
| 2026-05-07 01:29 | 46.48842 | -95.50148 | 15160 ft | 215 kts | 244° |
| 2026-05-07 01:29 | 46.47720 | -95.51620 | 14773 ft | 225 kts | 213° |
| 2026-05-07 01:29 | 46.46514 | -95.52889 | 14398 ft | 212 kts | 239° |
| 2026-05-07 01:29 | 46.46035 | -95.54791 | 14024 ft | 199 kts | 273° |
| 2026-05-07 01:30 | 46.46434 | -95.56606 | 13657 ft | 192 kts | 308° |
| 2026-05-07 01:30 | 46.47346 | -95.58009 | 13291 ft | 192 kts | 312° |
| 2026-05-07 01:30 | 46.48220 | -95.59452 | 12918 ft | 197 kts | 310° |
| 2026-05-07 01:30 | 46.49109 | -95.61050 | 12545 ft | 208 kts | 308° |
| 2026-05-07 01:31 | 46.50021 | -95.62781 | 12182 ft | 227 kts | 307° |
| 2026-05-07 01:31 | 46.51001 | -95.64703 | 11848 ft | 246 kts | 306° |
| 2026-05-07 01:31 | 46.52033 | -95.66768 | 11503 ft | 261 kts | 305° |
| 2026-05-07 01:31 | 46.53103 | -95.68929 | 11152 ft | 270 kts | 305° |
| 2026-05-07 01:32 | 46.54183 | -95.71124 | 10777 ft | 269 kts | 305° |
| 2026-05-07 01:32 | 46.54903 | -95.72591 | 10506 ft | 264 kts | 305° |
| 2026-05-07 01:32 | 46.56300 | -95.75444 | 9967 ft | 256 kts | 305° |
| 2026-05-07 01:32 | 46.57316 | -95.77523 | 9564 ft | 250 kts | 305° |
| 2026-05-07 01:33 | 46.58302 | -95.79542 | 9195 ft | 244 kts | 305° |
| 2026-05-07 01:33 | 46.59260 | -95.81509 | 8928 ft | 237 kts | 305° |
| 2026-05-07 01:33 | 46.60202 | -95.83441 | 8681 ft | 232 kts | 305° |
| 2026-05-07 01:33 | 46.61122 | -95.85331 | 8444 ft | 229 kts | 305° |
| 2026-05-07 01:34 | 46.61736 | -95.86592 | 8284 ft | 229 kts | 305° |
| 2026-05-07 01:34 | 46.62667 | -95.88508 | 8064 ft | 236 kts | 305° |
| 2026-05-07 01:34 | 46.63955 | -95.91158 | 7817 ft | 242 kts | 305° |
| 2026-05-07 01:34 | 46.64917 | -95.93139 | 7643 ft | 244 kts | 305° |
| 2026-05-07 01:35 | 46.65567 | -95.94479 | 7509 ft | 241 kts | 305° |
| 2026-05-07 01:35 | 46.66852 | -95.97127 | 7259 ft | 238 kts | 305° |
| 2026-05-07 01:35 | 46.67799 | -95.99081 | 7076 ft | 236 kts | 305° |
| 2026-05-07 01:35 | 46.68741 | -96.01028 | 6889 ft | 235 kts | 305° |
| 2026-05-07 01:36 | 46.69672 | -96.02953 | 6708 ft | 234 kts | 304° |
| 2026-05-07 01:36 | 46.70292 | -96.04234 | 6586 ft | 233 kts | 304° |
| 2026-05-07 01:36 | 46.71537 | -96.06809 | 6347 ft | 233 kts | 305° |
| 2026-05-07 01:36 | 46.72467 | -96.08736 | 6169 ft | 233 kts | 305° |
| 2026-05-07 01:37 | 46.73397 | -96.10661 | 5990 ft | 234 kts | 305° |
| 2026-05-07 01:37 | 46.74334 | -96.12606 | 5809 ft | 234 kts | 305° |
| 2026-05-07 01:37 | 46.75262 | -96.14537 | 5631 ft | 234 kts | 304° |
| 2026-05-07 01:37 | 46.76203 | -96.16490 | 5456 ft | 234 kts | 305° |
| 2026-05-07 01:38 | 46.77124 | -96.18400 | 5331 ft | 232 kts | 305° |
| 2026-05-07 01:38 | 46.78052 | -96.20331 | 5197 ft | 231 kts | 305° |
| 2026-05-07 01:38 | 46.78969 | -96.22237 | 5065 ft | 230 kts | 305° |
| 2026-05-07 01:38 | 46.79879 | -96.24134 | 4937 ft | 230 kts | 305° |
| 2026-05-07 01:39 | 46.80799 | -96.26050 | 4805 ft | 228 kts | 305° |
| 2026-05-07 01:39 | 46.81702 | -96.27934 | 4673 ft | 226 kts | 305° |
| 2026-05-07 01:39 | 46.82617 | -96.29842 | 4545 ft | 229 kts | 305° |
| 2026-05-07 01:39 | 46.83519 | -96.31726 | 4417 ft | 229 kts | 305° |
| 2026-05-07 01:40 | 46.84438 | -96.33645 | 4288 ft | 229 kts | 305° |
| 2026-05-07 01:40 | 46.85348 | -96.35548 | 4159 ft | 229 kts | 305° |
| 2026-05-07 01:40 | 46.86260 | -96.37458 | 4036 ft | 232 kts | 305° |
| 2026-05-07 01:40 | 46.86884 | -96.38763 | 3955 ft | 235 kts | 306° |
| 2026-05-07 01:41 | 46.88146 | -96.41407 | 3788 ft | 239 kts | 306° |
| 2026-05-07 01:41 | 46.89095 | -96.43398 | 3664 ft | 241 kts | 306° |
| 2026-05-07 01:41 | 46.90050 | -96.45401 | 3589 ft | 240 kts | 306° |
| 2026-05-07 01:41 | 46.90993 | -96.47381 | 3576 ft | 236 kts | 306° |
| 2026-05-07 01:42 | 46.91922 | -96.49336 | 3576 ft | 232 kts | 305° |
| 2026-05-07 01:42 | 46.92383 | -96.50729 | 3547 ft | 233 kts | 287° |
| 2026-05-07 01:42 | 46.92348 | -96.53861 | 3585 ft | 231 kts | 272° |
| 2026-05-07 01:42 | 46.92483 | -96.56178 | 3587 ft | 226 kts | 275° |
| 2026-05-07 01:43 | 46.92527 | -96.58456 | 3582 ft | 221 kts | 273° |
| 2026-05-07 01:43 | 46.92549 | -96.60629 | 3569 ft | 206 kts | 273° |
| 2026-05-07 01:43 | 46.92566 | -96.62631 | 3566 ft | 185 kts | 273° |
| 2026-05-07 01:43 | 46.92581 | -96.64432 | 3446 ft | 170 kts | 274° |
| 2026-05-07 01:44 | 46.92594 | -96.66035 | 3206 ft | 150 kts | 273° |
| 2026-05-07 01:44 | 46.92606 | -96.67458 | 2985 ft | 131 kts | 272° |
| 2026-05-07 01:44 | 46.92617 | -96.68758 | 2613 ft | 128 kts | 272° |
| 2026-05-07 01:44 | 46.92628 | -96.70050 | 2198 ft | 128 kts | 271° |
| 2026-05-07 01:45 | 46.92638 | -96.71350 | 1813 ft | 125 kts | 270° |
| 2026-05-07 01:45 | 46.92647 | -96.72546 | 1565 ft | 113 kts | 270° |
| 2026-05-07 01:45 | 46.92654 | -96.73664 | 1424 ft | 105 kts | 270° |
| 2026-05-07 01:45 | 46.92661 | -96.74729 | 1397 ft | 106 kts | 270° |
| 2026-05-07 01:46 | 46.92668 | -96.75816 | 1378 ft | 106 kts | 270° |
| 2026-05-07 01:46 | 46.92676 | -96.76893 | 1383 ft | 106 kts | 270° |
| 2026-05-07 01:46 | 46.92682 | -96.77942 | 1411 ft | 101 kts | 270° |
| 2026-05-07 01:46 | 46.92692 | -96.78954 | 1213 ft | 98 kts | 270° |
| 2026-05-07 01:47 | 46.92696 | -96.79978 | 979 ft | 105 kts | 270° |
| 2026-05-07 01:47 | 46.92703 | -96.81014 | 897 ft | 93 kts | 270° |
| 2026-05-07 01:47 | 46.92708 | -96.81667 | 897 ft | 37 kts | 271° |
| 2026-05-07 01:47 | 46.92708 | -96.81877 | 897 ft | 20 kts | 278° |
| 2026-05-07 01:48 | 46.92777 | -96.81943 | 897 ft | 0 kts | 0° |
| 2026-05-07 01:50 | 46.92786 | -96.81943 | 897 ft | 4 kts | 5° |
| 2026-05-07 01:50 | 46.92819 | -96.81888 | 897 ft | 11 kts | 84° |
| 2026-05-07 01:50 | 46.92819 | -96.81793 | 897 ft | 0 kts | 89° |
| 2026-05-07 01:50 | 46.92819 | -96.81775 | 897 ft | 7 kts | 89° |
| 2026-05-07 01:51 | 46.92817 | -96.81597 | 897 ft | 23 kts | 91° |
| 2026-05-07 01:51 | 46.92817 | -96.81445 | 897 ft | 13 kts | 91° |
| 2026-05-07 01:51 | 46.92815 | -96.81278 | 897 ft | 19 kts | 89° |
| 2026-05-07 01:51 | 46.92815 | -96.81081 | 897 ft | 4 kts | 87° |
| 2026-05-07 01:52 | 46.92854 | -96.81042 | 897 ft | 10 kts | 360° |
| 2026-05-07 01:52 | 46.92899 | -96.81104 | 897 ft | 1 kts | 310° |
| 2026-05-07 01:52 | 46.92929 | -96.81109 | 897 ft | 6 kts | 20° |
| 2026-05-07 01:52 | 46.92930 | -96.81087 | 897 ft | 0 kts | 87° |